createdAt,value
2022-10-31T00:01:39.410Z,88.92
2022-10-31T00:04:07.180Z,88.14
2022-10-31T00:06:34.130Z,87.43
2022-10-31T00:09:03.694Z,86.01
2022-10-31T00:11:30.916Z,85.32
2022-10-31T00:14:00.919Z,85.67
2022-10-31T00:16:29.168Z,85.79
2022-10-31T00:18:58.474Z,85.12
2022-10-31T00:21:25.855Z,86.71
2022-10-31T00:23:52.846Z,86.17
2022-10-31T00:26:20.153Z,85.25
2022-10-31T00:28:47.864Z,85.18
2022-10-31T00:31:15.355Z,85.62
2022-10-31T00:33:42.754Z,85.07
2022-10-31T00:36:14.292Z,82.54
2022-10-31T00:38:42.551Z,84.38
2022-10-31T00:41:10.668Z,84.66
2022-10-31T00:43:41.132Z,85.78
2022-10-31T00:46:07.988Z,86.41
2022-10-31T00:48:34.855Z,83.98
2022-10-31T00:51:01.854Z,83.28
2022-10-31T00:53:28.752Z,82.75
2022-10-31T00:55:55.698Z,82.73
2022-10-31T00:58:23.800Z,80.72
2022-10-31T01:00:56.211Z,80.92
2022-10-31T01:03:28.887Z,80.39
2022-10-31T01:06:15.153Z,82.67
2022-10-31T01:08:42.065Z,84.18
2022-10-31T01:11:20.872Z,83.44
2022-10-31T01:13:48.071Z,82.08
2022-10-31T01:16:17.808Z,83.46
2022-10-31T01:18:45.495Z,84.10
2022-10-31T01:21:18.628Z,83.62
2022-10-31T01:23:45.769Z,83.63
2022-10-31T01:26:20.609Z,82.83
2022-10-31T01:29:08.915Z,81.63
2022-10-31T01:31:38.518Z,82.64
2022-10-31T01:34:06.345Z,83.25
2022-10-31T01:36:38.601Z,83.96
2022-10-31T01:39:08.223Z,83.86
2022-10-31T01:41:38.239Z,85.09
2022-10-31T01:44:25.357Z,84.66
2022-10-31T01:47:00.354Z,84.14
2022-10-31T01:49:52.733Z,85.75
2022-10-31T01:52:30.152Z,87.61
2022-10-31T01:55:06.100Z,86.18
2022-10-31T01:57:35.318Z,86.38
2022-10-31T02:00:07.477Z,87.14
2022-10-31T02:02:40.378Z,85.42
2022-10-31T02:05:11.575Z,83.92
2022-10-31T02:07:44.474Z,83.75
2022-10-31T02:10:11.435Z,81.83
2022-10-31T02:12:39.400Z,81.67
2022-10-31T02:15:07.017Z,80.43
2022-10-31T02:17:34.778Z,80.18
2022-10-31T02:20:17.026Z,78.95
2022-10-31T02:22:56.163Z,79.11
2022-10-31T02:26:14.575Z,81.21
2022-10-31T02:29:05.120Z,83.92
2022-10-31T02:31:49.795Z,84.38
2022-10-31T02:34:27.211Z,85.92
2022-10-31T02:37:02.967Z,85.64
2022-10-31T02:39:49.044Z,85.75
2022-10-31T02:42:50.020Z,84.50
2022-10-31T02:45:31.837Z,85.80
2022-10-31T02:48:04.227Z,85.08
2022-10-31T02:50:37.322Z,84.06
2022-10-31T02:53:04.791Z,84.58
2022-10-31T02:55:31.802Z,84.19
2022-10-31T02:58:09.925Z,86.41
2022-10-31T03:00:42.154Z,89.41
2022-10-31T03:03:24.473Z,88.71
2022-10-31T03:05:57.575Z,89.55
2022-10-31T03:08:41.556Z,84.40
2022-10-31T03:11:10.863Z,82.68
2022-10-31T03:14:13.867Z,82.80
2022-10-31T03:16:53.132Z,85.27
2022-10-31T03:19:34.670Z,91.54
2022-10-31T03:22:30.864Z,94.71
2022-10-31T03:25:01.071Z,91.10
2022-10-31T03:27:32.242Z,90.21
2022-10-31T03:30:03.209Z,88.09
2022-10-31T03:32:42.612Z,88.50
2022-10-31T03:35:11.256Z,87.19
2022-10-31T03:37:41.680Z,84.91
2022-10-31T03:40:15.813Z,84.13
2022-10-31T03:42:47.714Z,84.09
2022-10-31T03:45:24.748Z,82.34
2022-10-31T03:47:54.102Z,81.99
2022-10-31T03:50:22.792Z,82.53
2022-10-31T03:53:07.301Z,81.32
2022-10-31T03:55:43.888Z,85.79
2022-10-31T04:00:51.021Z,80.06
2022-10-31T04:03:28.801Z,77.57
2022-10-31T04:06:03.091Z,76.11
2022-10-31T04:08:34.687Z,73.54
2022-10-31T04:11:05.962Z,72.42
2022-10-31T04:13:35.609Z,72.21
2022-10-31T04:16:12.634Z,70.95
2022-10-31T04:18:43.037Z,71.73
2022-10-31T04:21:10.773Z,72.72
2022-10-31T04:23:37.779Z,72.80
2022-10-31T04:26:14.487Z,74.43
2022-10-31T04:28:44.226Z,74.13
2022-10-31T04:31:13.575Z,75.64
2022-10-31T04:33:41.434Z,79.26
2022-10-31T04:36:08.604Z,77.83
2022-10-31T04:38:36.222Z,80.06
2022-10-31T04:41:08.890Z,82.56
2022-10-31T04:43:58.956Z,83.62
2022-10-31T04:46:27.804Z,84.07
2022-10-31T04:48:56.881Z,85.39
2022-10-31T04:51:24.703Z,86.36
2022-10-31T04:53:52.252Z,85.53
2022-10-31T04:56:41.937Z,83.34
2022-10-31T04:59:17.172Z,81.79
2022-10-31T05:01:50.072Z,80.82
2022-10-31T05:04:22.250Z,81.12
2022-10-31T05:06:49.303Z,81.07
2022-10-31T05:09:16.283Z,79.58
2022-10-31T05:11:43.878Z,78.58
2022-10-31T05:14:29.276Z,76.69
2022-10-31T05:17:16.171Z,76.79
2022-10-31T05:20:06.312Z,76.07
2022-10-31T05:23:05.378Z,78.64
2022-10-31T05:25:33.449Z,73.17
2022-10-31T05:28:04.661Z,80.54
2022-10-31T05:30:33.058Z,81.89
2022-10-31T05:33:01.038Z,83.42
2022-10-31T05:35:46.782Z,82.90
2022-10-31T05:38:35.040Z,78.03
2022-10-31T05:41:11.079Z,74.06
2022-10-31T05:43:42.576Z,75.13
2022-10-31T05:46:10.284Z,75.77
2022-10-31T05:49:06.069Z,66.30
2022-10-31T05:51:51.598Z,59.19
2022-10-31T05:54:20.227Z,57.39
2022-10-31T05:56:47.211Z,53.90
2022-10-31T05:59:14.162Z,56.11
2022-10-31T06:01:41.382Z,55.90
2022-10-31T06:04:22.212Z,64.44
2022-10-31T06:06:49.237Z,69.09
2022-10-31T06:09:17.000Z,71.28
2022-10-31T06:11:45.042Z,71.20
2022-10-31T06:14:32.125Z,71.58
2022-10-31T06:16:59.210Z,72.87
2022-10-31T06:20:01.415Z,73.86
2022-10-31T06:22:30.568Z,73.50
2022-10-31T06:24:57.603Z,73.19
2022-10-31T06:27:34.913Z,69.61
2022-10-31T06:30:09.485Z,66.05
2022-10-31T06:32:37.477Z,66.54
2022-10-31T06:35:04.836Z,64.74
2022-10-31T06:37:33.773Z,64.52
2022-10-31T06:40:08.400Z,55.56
2022-10-31T06:43:01.513Z,51.52
2022-10-31T06:45:29.747Z,51.03
2022-10-31T06:48:18.381Z,54.24
2022-10-31T06:51:04.316Z,54.08
2022-10-31T06:53:32.390Z,53.11
2022-10-31T06:56:01.777Z,51.88
2022-10-31T06:58:30.815Z,52.44
2022-10-31T07:01:01.495Z,52.94
2022-10-31T07:03:28.537Z,52.17
2022-10-31T07:05:58.585Z,54.30
2022-10-31T07:08:26.258Z,53.92
2022-10-31T07:10:55.637Z,52.05
2022-10-31T07:13:26.641Z,52.18
2022-10-31T07:16:14.930Z,52.07
2022-10-31T07:18:44.573Z,50.65
2022-10-31T07:21:13.188Z,51.69
2022-10-31T07:23:41.810Z,52.35
2022-10-31T07:26:28.989Z,52.99
2022-10-31T07:28:56.007Z,52.74
2022-10-31T07:31:25.567Z,53.42
2022-10-31T07:33:55.181Z,51.95
2022-10-31T07:36:28.166Z,52.42
2022-10-31T07:39:00.101Z,51.95
2022-10-31T07:41:27.118Z,52.17
2022-10-31T07:43:54.573Z,50.62
2022-10-31T07:46:30.313Z,50.16
2022-10-31T07:49:35.590Z,47.93
2022-10-31T07:52:21.140Z,44.74
2022-10-31T07:55:06.763Z,41.84
2022-10-31T07:57:37.870Z,37.98
2022-10-31T08:00:07.078Z,36.73
2022-10-31T08:02:41.839Z,37.67
2022-10-31T08:05:45.889Z,38.12
2022-10-31T08:08:38.998Z,37.89
2022-10-31T08:11:08.184Z,37.74
2022-10-31T08:13:35.764Z,33.70
2022-10-31T08:16:05.346Z,32.32
2022-10-31T08:18:38.666Z,32.73
2022-10-31T08:21:08.816Z,32.37
2022-10-31T08:23:35.975Z,31.80
2022-10-31T08:26:03.502Z,30.25
2022-10-31T08:28:31.459Z,29.91
2022-10-31T08:30:59.648Z,30.83
2022-10-31T08:33:38.284Z,31.44
2022-10-31T08:36:22.890Z,32.55
2022-10-31T08:39:09.657Z,34.32
2022-10-31T08:41:36.647Z,34.12
2022-10-31T08:44:03.901Z,33.31
2022-10-31T08:46:32.756Z,34.55
2022-10-31T08:48:59.794Z,33.22
2022-10-31T08:51:26.943Z,33.42
2022-10-31T08:53:55.877Z,33.47
2022-10-31T08:56:41.220Z,38.03
2022-10-31T08:59:31.149Z,38.74
2022-10-31T09:02:18.346Z,35.27
2022-10-31T09:04:45.323Z,36.88
2022-10-31T09:07:27.385Z,34.53
2022-10-31T09:09:56.811Z,35.97
2022-10-31T09:12:25.091Z,36.98
2022-10-31T09:15:24.732Z,35.91
2022-10-31T09:17:57.858Z,35.78
2022-10-31T09:20:32.327Z,34.05
2022-10-31T09:23:05.155Z,36.17
2022-10-31T09:25:35.976Z,36.82
2022-10-31T09:28:24.592Z,36.88
2022-10-31T09:30:54.616Z,37.28
2022-10-31T09:33:43.199Z,36.43
2022-10-31T09:36:28.496Z,38.63
2022-10-31T09:38:56.132Z,39.34
2022-10-31T09:41:35.061Z,35.62
2022-10-31T09:44:10.780Z,33.25
2022-10-31T09:46:48.790Z,33.43
2022-10-31T09:49:42.224Z,32.03
2022-10-31T09:52:24.515Z,32.64
2022-10-31T09:54:51.319Z,33.69
2022-10-31T09:57:25.585Z,37.43
2022-10-31T09:59:53.061Z,34.06
2022-10-31T10:02:33.855Z,32.06
2022-10-31T10:05:05.060Z,32.36
2022-10-31T10:07:57.912Z,32.14
2022-10-31T10:10:59.880Z,33.05
2022-10-31T10:14:24.905Z,31.50
2022-10-31T10:16:58.892Z,30.94
2022-10-31T10:19:25.756Z,31.49
2022-10-31T10:22:09.157Z,29.75
2022-10-31T10:24:44.997Z,31.50
2022-10-31T10:27:35.128Z,31.10
2022-10-31T10:30:18.634Z,32.51
2022-10-31T10:32:52.199Z,34.91
2022-10-31T10:35:48.600Z,35.79
2022-10-31T10:38:49.146Z,37.03
2022-10-31T10:41:21.901Z,35.21
2022-10-31T10:43:51.418Z,33.68
2022-10-31T10:46:43.563Z,31.03
2022-10-31T10:49:22.316Z,31.78
2022-10-31T10:52:07.525Z,31.45
2022-10-31T10:54:58.178Z,30.79
2022-10-31T10:57:47.753Z,30.33
2022-10-31T11:00:22.711Z,31.26
2022-10-31T11:02:50.227Z,32.34
2022-10-31T11:05:35.534Z,34.88
2022-10-31T11:08:03.064Z,36.56
2022-10-31T11:10:30.494Z,37.04
2022-10-31T11:13:16.863Z,38.00
2022-10-31T11:16:09.947Z,38.77
2022-10-31T11:18:43.855Z,42.61
2022-10-31T11:21:29.422Z,45.48
2022-10-31T11:24:11.297Z,46.28
2022-10-31T11:26:40.507Z,44.57
2022-10-31T11:29:26.043Z,41.78
2022-10-31T11:31:58.110Z,41.28
2022-10-31T11:34:36.191Z,40.19
2022-10-31T11:37:19.411Z,40.11
2022-10-31T11:39:54.489Z,38.94
2022-10-31T11:42:28.137Z,39.10
2022-10-31T11:44:56.861Z,37.16
2022-10-31T11:47:29.680Z,41.49
2022-10-31T11:49:58.258Z,44.12
2022-10-31T11:52:29.692Z,44.83
2022-10-31T11:55:02.150Z,45.85
2022-10-31T11:57:34.597Z,44.92
2022-10-31T12:00:06.964Z,42.90
2022-10-31T12:02:39.486Z,42.08
2022-10-31T12:05:19.242Z,44.34
2022-10-31T12:07:46.261Z,42.78
2022-10-31T12:10:14.856Z,42.41
2022-10-31T12:12:50.740Z,40.58
2022-10-31T12:15:37.820Z,35.95
2022-10-31T12:18:32.864Z,33.19
2022-10-31T12:20:59.602Z,33.45
2022-10-31T12:23:47.438Z,34.30
2022-10-31T12:26:38.690Z,35.64
2022-10-31T12:29:23.691Z,33.22
2022-10-31T12:32:14.916Z,32.61
2022-10-31T12:35:01.003Z,32.43
2022-10-31T12:38:14.334Z,30.30
2022-10-31T12:41:16.730Z,29.34
2022-10-31T12:44:06.538Z,27.83
2022-10-31T12:47:11.672Z,25.89
2022-10-31T12:49:47.548Z,28.43
2022-10-31T12:52:26.895Z,29.18
2022-10-31T12:55:04.628Z,29.96
2022-10-31T12:57:39.371Z,30.05
2022-10-31T13:00:17.112Z,30.75
2022-10-31T13:02:49.915Z,32.49
2022-10-31T13:05:37.722Z,32.27
2022-10-31T13:08:10.011Z,34.81
2022-10-31T13:11:15.753Z,36.78
2022-10-31T13:13:53.150Z,35.34
2022-10-31T13:16:24.204Z,30.92
2022-10-31T13:19:00.096Z,30.48
2022-10-31T13:21:40.605Z,31.85
2022-10-31T13:24:14.948Z,32.49
2022-10-31T13:26:44.745Z,34.24
2022-10-31T13:29:32.593Z,33.32
2022-10-31T13:32:05.572Z,32.52
2022-10-31T13:34:43.498Z,30.44
2022-10-31T13:37:22.488Z,27.80
2022-10-31T13:40:16.567Z,30.91
2022-10-31T13:43:20.821Z,32.51
2022-10-31T13:45:55.529Z,32.66
2022-10-31T13:48:28.502Z,33.38
2022-10-31T13:51:05.058Z,31.91
2022-10-31T13:53:46.999Z,34.35
2022-10-31T13:56:23.328Z,35.00
2022-10-31T13:59:05.078Z,37.95
2022-10-31T14:01:34.227Z,37.47
2022-10-31T14:04:25.316Z,39.58
2022-10-31T14:06:52.553Z,42.01
2022-10-31T14:09:35.265Z,43.42
2022-10-31T14:12:14.233Z,44.01
2022-10-31T14:14:49.195Z,44.56
2022-10-31T14:17:28.680Z,43.64
2022-10-31T14:20:02.466Z,39.07
2022-10-31T14:22:37.436Z,42.90
2022-10-31T14:25:26.181Z,44.22
2022-10-31T14:27:53.768Z,45.31
2022-10-31T14:30:26.664Z,45.15
2022-10-31T14:32:56.450Z,46.40
2022-10-31T14:35:28.827Z,46.40
2022-10-31T14:38:08.915Z,47.27
2022-10-31T14:41:28.096Z,48.05
2022-10-31T14:44:00.376Z,47.19
2022-10-31T14:46:37.512Z,47.92
2022-10-31T14:49:29.046Z,47.47
2022-10-31T14:51:56.786Z,49.45
2022-10-31T14:54:33.529Z,50.21
2022-10-31T14:57:13.865Z,49.25
2022-10-31T14:59:46.265Z,48.14
2022-10-31T15:02:18.974Z,49.32
2022-10-31T15:04:48.744Z,49.07
2022-10-31T15:07:27.261Z,49.89
2022-10-31T15:10:01.388Z,50.20
2022-10-31T15:12:31.269Z,50.14
2022-10-31T15:14:59.867Z,51.88
2022-10-31T15:17:27.434Z,52.26
2022-10-31T15:19:54.711Z,51.29
2022-10-31T15:22:25.098Z,51.59
2022-10-31T15:24:57.486Z,48.38
2022-10-31T15:27:25.825Z,49.95
2022-10-31T15:29:55.953Z,52.92
2022-10-31T15:32:25.591Z,54.01
2022-10-31T15:34:54.132Z,55.20
2022-10-31T15:37:23.411Z,57.17
2022-10-31T15:39:50.663Z,58.15
2022-10-31T15:42:35.216Z,58.48
2022-10-31T15:45:13.980Z,57.32
2022-10-31T15:47:50.365Z,55.86
2022-10-31T15:50:51.498Z,54.65
2022-10-31T15:53:22.495Z,51.12
2022-10-31T15:55:57.045Z,51.43
2022-10-31T15:58:25.707Z,50.19
2022-10-31T16:01:19.882Z,49.08
2022-10-31T16:03:59.701Z,49.71
2022-10-31T16:06:26.831Z,49.79
2022-10-31T16:08:53.798Z,50.40
2022-10-31T16:11:23.900Z,49.62
2022-10-31T16:14:12.180Z,50.42
2022-10-31T16:16:45.643Z,54.21
2022-10-31T16:19:21.461Z,53.04
2022-10-31T16:21:53.403Z,52.76
2022-10-31T16:24:32.912Z,53.32
2022-10-31T16:27:16.678Z,52.27
2022-10-31T16:29:45.380Z,52.59
2022-10-31T16:32:28.664Z,53.65
2022-10-31T16:35:11.533Z,53.18
2022-10-31T16:37:39.439Z,52.69
2022-10-31T16:40:06.733Z,52.64
2022-10-31T16:42:33.814Z,52.81
2022-10-31T16:45:01.079Z,52.32
2022-10-31T16:47:28.671Z,51.74
2022-10-31T16:49:55.739Z,52.92
2022-10-31T16:52:22.562Z,53.76
2022-10-31T16:54:49.739Z,54.16
2022-10-31T16:57:21.566Z,55.35
2022-10-31T16:59:52.725Z,55.22
2022-10-31T17:02:19.861Z,54.67
2022-10-31T17:04:48.533Z,54.05
2022-10-31T17:07:17.788Z,53.47
2022-10-31T17:09:45.778Z,53.56
2022-10-31T17:12:20.044Z,54.11
2022-10-31T17:14:51.771Z,54.47
2022-10-31T17:17:18.952Z,55.48
2022-10-31T17:19:46.131Z,56.37
2022-10-31T17:22:14.386Z,57.02
2022-10-31T17:24:41.520Z,56.77
2022-10-31T17:27:08.675Z,56.56
2022-10-31T17:29:36.298Z,56.64
2022-10-31T17:32:04.372Z,56.06
2022-10-31T17:34:31.342Z,56.45
2022-10-31T17:36:58.272Z,57.99
2022-10-31T17:39:25.317Z,57.81
2022-10-31T17:41:52.989Z,57.23
2022-10-31T17:44:20.235Z,58.12
2022-10-31T17:46:47.161Z,58.72
2022-10-31T17:49:14.263Z,59.47
2022-10-31T17:51:41.217Z,60.70
2022-10-31T17:54:09.320Z,60.79
2022-10-31T17:56:36.360Z,60.37
2022-10-31T17:59:03.576Z,60.57
2022-10-31T18:01:30.657Z,60.74
2022-10-31T18:03:57.887Z,61.47
2022-10-31T18:06:24.889Z,59.57
2022-10-31T18:08:51.906Z,60.99
2022-10-31T18:11:21.723Z,60.83
2022-10-31T18:13:54.293Z,60.83
2022-10-31T18:16:21.671Z,61.32
2022-10-31T18:19:02.204Z,63.48
2022-10-31T18:21:30.224Z,62.17
2022-10-31T18:23:59.404Z,62.34
2022-10-31T18:26:27.929Z,61.75
2022-10-31T18:28:55.816Z,60.84
2022-10-31T18:31:22.976Z,61.07
2022-10-31T18:33:54.543Z,61.78
2022-10-31T18:36:22.421Z,62.29
2022-10-31T18:38:49.466Z,62.84
2022-10-31T18:41:16.755Z,63.04
2022-10-31T18:43:44.026Z,62.57
2022-10-31T18:46:14.472Z,63.57
2022-10-31T18:48:43.232Z,63.83
2022-10-31T18:51:13.488Z,62.84
2022-10-31T18:53:40.947Z,61.82
2022-10-31T18:56:09.645Z,63.36
2022-10-31T18:58:37.244Z,63.21
2022-10-31T19:01:08.885Z,62.57
2022-10-31T19:03:36.321Z,62.81
2022-10-31T19:06:03.663Z,63.59
2022-10-31T19:08:30.984Z,62.18
2022-10-31T19:11:18.249Z,61.06
2022-10-31T19:13:45.366Z,60.32
2022-10-31T19:16:14.788Z,60.08
2022-10-31T19:18:42.948Z,59.89
2022-10-31T19:21:18.215Z,59.36
2022-10-31T19:23:46.721Z,59.04
2022-10-31T19:26:14.457Z,59.16
2022-10-31T19:28:42.141Z,59.87
2022-10-31T19:31:10.626Z,61.04
2022-10-31T19:33:37.700Z,62.25
2022-10-31T19:36:10.888Z,60.55
2022-10-31T19:38:40.019Z,59.86
2022-10-31T19:41:11.632Z,60.60
2022-10-31T19:43:38.642Z,61.55
2022-10-31T19:46:07.070Z,63.50
2022-10-31T19:48:37.367Z,64.51
2022-10-31T19:51:07.199Z,64.64
2022-10-31T19:53:34.938Z,64.90
2022-10-31T19:56:02.123Z,64.80
2022-10-31T19:58:29.542Z,65.22
2022-10-31T20:00:56.547Z,64.24
2022-10-31T20:03:23.738Z,64.16
2022-10-31T20:05:51.053Z,63.36
2022-10-31T20:08:20.271Z,62.69
2022-10-31T20:11:16.867Z,61.44
2022-10-31T20:13:44.740Z,64.81
2022-10-31T20:16:13.414Z,68.37
2022-10-31T20:18:40.955Z,68.19
2022-10-31T20:21:11.183Z,67.48
2022-10-31T20:23:39.306Z,65.99
2022-10-31T20:26:08.651Z,65.94
2022-10-31T20:28:39.956Z,67.77
2022-10-31T20:31:12.936Z,69.48
2022-10-31T20:33:40.409Z,69.21
2022-10-31T20:36:08.687Z,71.76
2022-10-31T20:38:40.514Z,74.25
2022-10-31T20:41:09.778Z,75.15
2022-10-31T20:43:36.862Z,74.47
2022-10-31T20:46:21.675Z,73.91
2022-10-31T20:48:49.164Z,75.33
2022-10-31T20:51:21.128Z,75.05
2022-10-31T20:53:51.790Z,74.79
2022-10-31T20:56:20.889Z,74.33
2022-10-31T20:58:49.016Z,73.72
2022-10-31T21:01:17.651Z,73.96
2022-10-31T21:03:45.842Z,74.32
2022-10-31T21:06:13.967Z,74.58
2022-10-31T21:08:41.798Z,74.02
2022-10-31T21:11:11.406Z,73.97
2022-10-31T21:13:40.922Z,73.51
2022-10-31T21:16:13.457Z,72.63
2022-10-31T21:18:42.057Z,72.77
2022-10-31T21:21:15.915Z,71.96
2022-10-31T21:23:44.104Z,71.54
2022-10-31T21:26:21.176Z,71.70
2022-10-31T21:28:49.700Z,71.05
2022-10-31T21:31:17.915Z,69.81
2022-10-31T21:33:46.363Z,68.70
2022-10-31T21:36:14.125Z,68.09
2022-10-31T21:38:41.632Z,69.80
2022-10-31T21:41:11.170Z,67.27
2022-10-31T21:43:39.648Z,66.90
2022-10-31T21:46:12.094Z,66.54
2022-10-31T21:48:42.281Z,68.59
2022-10-31T21:51:15.038Z,68.27
2022-10-31T21:54:00.658Z,66.99
2022-10-31T21:56:28.401Z,67.42
2022-10-31T21:58:55.950Z,66.97
2022-10-31T22:01:24.831Z,66.65
2022-10-31T22:03:52.277Z,67.03
2022-10-31T22:06:19.150Z,66.34
2022-10-31T22:08:46.467Z,66.00
2022-10-31T22:11:15.712Z,64.53
2022-10-31T22:13:44.956Z,67.41
2022-10-31T22:16:23.378Z,68.17
2022-10-31T22:18:55.895Z,67.48
2022-10-31T22:21:26.371Z,66.97
2022-10-31T22:23:55.467Z,68.68
2022-10-31T22:26:22.846Z,70.80
2022-10-31T22:29:02.475Z,72.24
2022-10-31T22:31:31.810Z,71.46
2022-10-31T22:33:59.363Z,70.86
2022-10-31T22:36:30.775Z,70.40
2022-10-31T22:38:58.837Z,70.23
2022-10-31T22:41:30.780Z,69.92
2022-10-31T22:43:58.455Z,70.14
2022-10-31T22:46:30.498Z,69.67
2022-10-31T22:49:00.586Z,68.75
2022-10-31T22:51:33.701Z,68.58
2022-10-31T22:54:01.250Z,71.00
2022-10-31T22:56:31.109Z,70.65
2022-10-31T22:58:59.171Z,69.94
2022-10-31T23:01:28.691Z,69.44
2022-10-31T23:03:56.122Z,70.20
2022-10-31T23:06:25.887Z,69.25
2022-10-31T23:08:53.403Z,69.07
2022-10-31T23:11:33.832Z,69.64
2022-10-31T23:14:15.951Z,69.00
2022-10-31T23:16:47.509Z,68.18
2022-10-31T23:19:19.563Z,68.74
2022-10-31T23:21:55.069Z,69.56
2022-10-31T23:24:42.842Z,69.28
2022-10-31T23:27:12.746Z,69.43
2022-10-31T23:29:47.075Z,69.01
2022-10-31T23:32:27.210Z,69.97
2022-10-31T23:34:56.588Z,70.14
2022-10-31T23:37:25.884Z,69.39
2022-10-31T23:39:53.706Z,69.20
2022-10-31T23:42:20.999Z,69.29
2022-10-31T23:44:48.380Z,69.69
2022-10-31T23:47:16.120Z,70.56
2022-10-31T23:49:43.496Z,72.04
2022-10-31T23:52:11.253Z,72.53
2022-10-31T23:54:38.477Z,72.47
2022-10-31T23:57:06.067Z,73.25
2022-10-31T23:59:33.451Z,73.17
